createdAt,value
2022-10-08T00:01:53.447Z,101305.00
2022-10-08T00:04:22.387Z,101309.00
2022-10-08T00:06:50.698Z,101313.00
2022-10-08T00:09:19.000Z,101323.00
2022-10-08T00:11:47.306Z,101327.00
2022-10-08T00:14:15.612Z,101332.00
2022-10-08T00:16:45.746Z,101331.00
2022-10-08T00:19:15.996Z,101323.00
2022-10-08T00:21:46.553Z,101321.00
2022-10-08T00:24:19.140Z,101321.00
2022-10-08T00:26:47.777Z,101307.00
2022-10-08T00:29:19.806Z,101320.00
2022-10-08T00:31:51.515Z,101312.00
2022-10-08T00:34:23.760Z,101319.00
2022-10-08T00:36:54.051Z,101323.00
2022-10-08T00:39:25.290Z,101330.00
2022-10-08T00:41:56.073Z,101335.00
2022-10-08T00:44:58.508Z,101330.00
2022-10-08T00:47:36.955Z,101329.00
2022-10-08T00:50:12.312Z,101320.00
2022-10-08T00:52:45.292Z,101315.00
2022-10-08T00:55:16.215Z,101304.00
2022-10-08T00:57:44.770Z,101296.00
2022-10-08T01:00:17.563Z,101306.00
2022-10-08T01:02:47.669Z,101294.00
2022-10-08T01:05:21.003Z,101287.00
2022-10-08T01:07:55.005Z,101283.00
2022-10-08T01:10:32.719Z,101288.00
2022-10-08T01:13:21.379Z,101280.00
2022-10-08T01:15:58.833Z,101285.00
2022-10-08T01:18:40.795Z,101293.00
2022-10-08T01:21:13.377Z,101293.00
2022-10-08T01:24:21.041Z,101292.00
2022-10-08T01:27:02.073Z,101277.00
2022-10-08T01:29:38.593Z,101275.00
2022-10-08T01:32:14.202Z,101269.00
2022-10-08T01:34:48.024Z,101274.00
2022-10-08T01:37:24.752Z,101269.00
2022-10-08T01:39:56.529Z,101267.00
2022-10-08T01:42:27.102Z,101258.00
2022-10-08T01:45:00.692Z,101269.00
2022-10-08T01:47:31.802Z,101268.00
2022-10-08T01:50:05.543Z,101274.00
2022-10-08T01:52:38.705Z,101275.00
2022-10-08T01:55:14.840Z,101281.00
2022-10-08T01:57:44.257Z,101263.00
2022-10-08T02:00:17.470Z,101266.00
2022-10-08T02:02:46.344Z,101271.00
2022-10-08T02:05:14.763Z,101270.00
2022-10-08T02:07:44.557Z,101275.00
2022-10-08T02:10:15.855Z,101276.00
2022-10-08T02:12:45.559Z,101265.00
2022-10-08T02:15:19.318Z,101285.00
2022-10-08T02:17:58.252Z,101286.00
2022-10-08T02:20:33.747Z,101281.00
2022-10-08T02:23:09.658Z,101273.00
2022-10-08T02:25:44.465Z,101290.00
2022-10-08T02:28:20.346Z,101284.00
2022-10-08T02:30:55.210Z,101299.00
2022-10-08T02:33:28.236Z,101287.00
2022-10-08T02:35:59.927Z,101292.00
2022-10-08T02:38:34.132Z,101301.00
2022-10-08T02:41:06.096Z,101294.00
2022-10-08T02:43:38.723Z,101294.00
2022-10-08T02:46:14.634Z,101280.00
2022-10-08T02:48:49.849Z,101283.00
2022-10-08T02:51:19.721Z,101289.00
2022-10-08T02:53:49.430Z,101293.00
2022-10-08T02:56:27.580Z,101299.00
2022-10-08T02:58:57.266Z,101302.00
2022-10-08T03:01:37.839Z,101291.00
2022-10-08T03:04:11.887Z,101303.00
2022-10-08T03:06:40.939Z,101305.00
2022-10-08T03:09:13.431Z,101307.00
2022-10-08T03:11:41.944Z,101314.00
2022-10-08T03:14:14.596Z,101315.00
2022-10-08T03:16:46.956Z,101308.00
2022-10-08T03:19:17.930Z,101310.00
2022-10-08T03:21:49.136Z,101309.00
2022-10-08T03:24:18.054Z,101301.00
2022-10-08T03:26:46.229Z,101315.00
2022-10-08T03:29:14.677Z,101319.00
2022-10-08T03:31:44.249Z,101317.00
2022-10-08T03:34:12.445Z,101314.00
2022-10-08T03:36:40.674Z,101323.00
2022-10-08T03:39:10.201Z,101316.00
2022-10-08T03:41:38.922Z,101327.00
2022-10-08T03:44:09.577Z,101324.00
2022-10-08T03:46:37.884Z,101329.00
2022-10-08T03:49:07.490Z,101337.00
2022-10-08T03:51:35.771Z,101327.00
2022-10-08T03:54:04.071Z,101343.00
2022-10-08T03:56:32.347Z,101342.00
2022-10-08T03:59:01.871Z,101345.00
2022-10-08T04:01:30.612Z,101358.00
2022-10-08T04:03:58.902Z,101347.00
2022-10-08T04:06:28.589Z,101350.00
2022-10-08T04:09:00.986Z,101356.00
2022-10-08T04:11:30.816Z,101360.00
2022-10-08T04:13:59.119Z,101359.00
2022-10-08T04:16:27.255Z,101355.00
2022-10-08T04:18:55.510Z,101365.00
2022-10-08T04:21:23.802Z,101355.00
2022-10-08T04:23:53.406Z,101360.00
2022-10-08T04:26:21.512Z,101360.00
2022-10-08T04:28:49.722Z,101366.00
2022-10-08T04:31:21.904Z,101364.00
2022-10-08T04:33:51.717Z,101361.00
2022-10-08T04:36:22.950Z,101360.00
2022-10-08T04:39:00.585Z,101378.00
2022-10-08T04:41:32.312Z,101375.00
2022-10-08T04:44:02.207Z,101369.00
2022-10-08T04:46:31.415Z,101373.00
2022-10-08T04:49:00.264Z,101375.00
2022-10-08T04:51:29.330Z,101373.00
2022-10-08T04:53:59.458Z,101378.00
2022-10-08T04:56:30.885Z,101376.00
2022-10-08T04:59:00.873Z,101381.00
2022-10-08T05:01:30.640Z,101376.00
2022-10-08T05:04:00.750Z,101378.00
2022-10-08T05:06:31.512Z,101377.00
2022-10-08T05:09:04.245Z,101386.00
2022-10-08T05:11:33.774Z,101384.00
2022-10-08T05:14:02.856Z,101389.00
2022-10-08T05:16:31.477Z,101388.00
2022-10-08T05:18:59.970Z,101396.00
2022-10-08T05:21:30.557Z,101386.00
2022-10-08T05:24:02.587Z,101398.00
2022-10-08T05:26:57.536Z,101403.00
2022-10-08T05:29:22.837Z,101405.00
2022-10-08T05:31:51.050Z,101409.00
2022-10-08T05:34:19.282Z,101409.00
2022-10-08T05:36:47.629Z,101409.00
2022-10-08T05:39:17.443Z,101412.00
2022-10-08T05:41:45.686Z,101406.00
2022-10-08T05:44:14.130Z,101418.00
2022-10-08T05:46:42.455Z,101421.00
2022-10-08T05:49:19.738Z,101402.00
2022-10-08T05:51:48.263Z,101421.00
2022-10-08T05:54:19.462Z,101428.00
2022-10-08T05:56:47.690Z,101422.00
2022-10-08T05:59:21.581Z,101416.00
2022-10-08T06:01:50.360Z,101426.00
2022-10-08T06:04:19.483Z,101423.00
2022-10-08T06:06:48.421Z,101432.00
2022-10-08T06:09:22.033Z,101433.00
2022-10-08T06:11:50.727Z,101443.00
2022-10-08T06:14:20.433Z,101440.00
2022-10-08T06:16:48.975Z,101438.00
2022-10-08T06:19:17.650Z,101440.00
2022-10-08T06:21:46.215Z,101447.00
2022-10-08T06:24:14.974Z,101455.00
2022-10-08T06:26:45.502Z,101452.00
2022-10-08T06:29:16.938Z,101467.00
2022-10-08T06:31:46.273Z,101465.00
2022-10-08T06:34:14.773Z,101477.00
2022-10-08T06:36:43.179Z,101477.00
2022-10-08T06:39:15.285Z,101476.00
2022-10-08T06:41:45.364Z,101484.00
2022-10-08T06:44:15.909Z,101497.00
2022-10-08T06:46:44.450Z,101494.00
2022-10-08T06:49:13.562Z,101487.00
2022-10-08T06:51:42.015Z,101502.00
2022-10-08T06:54:10.253Z,101518.00
2022-10-08T06:56:39.669Z,101517.00
2022-10-08T06:59:10.079Z,101522.00
2022-10-08T07:01:38.418Z,101528.00
2022-10-08T07:04:07.481Z,101533.00
2022-10-08T07:06:36.417Z,101532.00
2022-10-08T07:09:06.779Z,101530.00
2022-10-08T07:11:35.150Z,101544.00
2022-10-08T07:14:03.475Z,101539.00
2022-10-08T07:16:33.626Z,101552.00
2022-10-08T07:19:01.833Z,101550.00
2022-10-08T07:21:31.339Z,101569.00
2022-10-08T07:24:01.638Z,101572.00
2022-10-08T07:26:34.200Z,101578.00
2022-10-08T07:29:06.177Z,101578.00
2022-10-08T07:31:37.975Z,101578.00
2022-10-08T07:34:08.689Z,101589.00
2022-10-08T07:36:37.485Z,101588.00
2022-10-08T07:39:09.424Z,101587.00
2022-10-08T07:41:37.679Z,101588.00
2022-10-08T07:44:07.114Z,101592.00
2022-10-08T07:46:38.818Z,101603.00
2022-10-08T07:49:07.431Z,101604.00
2022-10-08T07:51:36.704Z,101614.00
2022-10-08T07:54:08.440Z,101609.00
2022-10-08T07:56:37.913Z,101609.00
2022-10-08T07:59:07.183Z,101569.00
2022-10-08T08:01:37.090Z,101609.00
2022-10-08T08:04:08.638Z,101614.00
2022-10-08T08:06:42.091Z,101625.00
2022-10-08T08:09:11.841Z,101618.00
2022-10-08T08:11:40.313Z,101621.00
2022-10-08T08:14:08.810Z,101637.00
2022-10-08T08:16:39.421Z,101634.00
2022-10-08T08:19:09.978Z,101644.00
2022-10-08T08:21:40.086Z,101632.00
2022-10-08T08:24:11.561Z,101628.00
2022-10-08T08:26:43.319Z,101657.00
2022-10-08T08:29:15.858Z,101663.00
2022-10-08T08:31:47.709Z,101663.00
2022-10-08T08:34:19.196Z,101657.00
2022-10-08T08:36:49.837Z,101675.00
2022-10-08T08:39:20.403Z,101673.00
2022-10-08T08:42:27.905Z,101685.00
2022-10-08T08:45:00.807Z,101672.00
2022-10-08T08:47:35.926Z,101686.00
2022-10-08T08:50:10.284Z,101691.00
2022-10-08T08:52:41.857Z,101697.00
2022-10-08T08:55:17.010Z,101690.00
2022-10-08T08:57:55.759Z,101701.00
2022-10-08T09:00:31.572Z,101697.00
2022-10-08T09:03:05.176Z,101711.00
2022-10-08T09:05:37.224Z,101716.00
2022-10-08T09:08:15.490Z,101708.00
2022-10-08T09:10:49.558Z,101717.00
2022-10-08T09:13:23.811Z,101725.00
2022-10-08T09:15:52.974Z,101724.00
2022-10-08T09:18:22.841Z,101730.00
2022-10-08T09:20:51.105Z,101733.00
2022-10-08T09:23:21.623Z,101730.00
2022-10-08T09:25:55.782Z,101729.00
2022-10-08T09:28:47.979Z,101743.00
2022-10-08T09:31:27.082Z,101746.00
2022-10-08T09:34:15.975Z,101751.00
2022-10-08T09:36:47.631Z,101745.00
2022-10-08T09:39:20.437Z,101738.00
2022-10-08T09:42:09.545Z,101742.00
2022-10-08T09:44:42.248Z,101745.00
2022-10-08T09:47:15.277Z,101740.00
2022-10-08T09:49:45.266Z,101750.00
2022-10-08T09:52:20.475Z,101743.00
2022-10-08T09:54:53.366Z,101757.00
2022-10-08T09:57:23.179Z,101759.00
2022-10-08T09:59:55.090Z,101759.00
2022-10-08T10:02:31.968Z,101761.00
2022-10-08T10:05:04.415Z,101768.00
2022-10-08T10:07:42.162Z,101766.00
2022-10-08T10:10:22.655Z,101748.00
2022-10-08T10:12:55.659Z,101761.00
2022-10-08T10:15:30.022Z,101772.00
2022-10-08T10:18:02.740Z,101768.00
2022-10-08T10:20:37.428Z,101773.00
2022-10-08T10:23:13.555Z,101772.00
2022-10-08T10:26:14.025Z,101719.00
2022-10-08T10:28:47.195Z,101771.00
2022-10-08T10:31:21.026Z,101781.00
2022-10-08T10:33:55.409Z,101780.00
2022-10-08T10:36:31.666Z,101779.00
2022-10-08T10:39:11.442Z,101784.00
2022-10-08T10:41:44.630Z,101796.00
2022-10-08T10:44:15.797Z,101805.00
2022-10-08T10:46:49.660Z,101807.00
2022-10-08T10:49:21.077Z,101805.00
2022-10-08T10:52:07.301Z,101806.00
2022-10-08T10:54:58.988Z,101808.00
2022-10-08T10:57:42.641Z,101813.00
2022-10-08T11:00:19.159Z,101810.00
2022-10-08T11:02:54.869Z,101822.00
2022-10-08T11:05:26.503Z,101807.00
2022-10-08T11:08:21.030Z,101823.00
2022-10-08T11:11:07.209Z,101826.00
2022-10-08T11:13:53.150Z,101822.00
2022-10-08T11:16:40.070Z,101830.00
2022-10-08T11:19:27.256Z,101823.00
2022-10-08T11:22:06.717Z,101830.00
2022-10-08T11:25:04.832Z,101819.00
2022-10-08T11:27:46.824Z,101824.00
2022-10-08T11:30:20.197Z,101833.00
2022-10-08T11:32:54.576Z,101832.00
2022-10-08T11:35:31.930Z,101830.00
2022-10-08T11:38:10.484Z,101840.00
2022-10-08T11:40:45.593Z,101835.00
2022-10-08T11:43:26.286Z,101853.00
2022-10-08T11:46:28.592Z,101847.00
2022-10-08T11:48:58.974Z,101822.00
2022-10-08T11:51:38.874Z,101853.00
2022-10-08T11:54:15.506Z,101845.00
2022-10-08T11:56:48.464Z,101856.00
2022-10-08T11:59:39.426Z,101850.00
2022-10-08T12:02:23.917Z,101853.00
2022-10-08T12:04:55.172Z,101842.00
2022-10-08T12:07:30.117Z,101847.00
2022-10-08T12:10:32.949Z,101847.00
2022-10-08T12:13:31.293Z,101855.00
2022-10-08T12:16:07.766Z,101855.00
2022-10-08T12:18:54.566Z,101846.00
2022-10-08T12:21:56.061Z,101846.00
2022-10-08T12:24:57.444Z,101847.00
2022-10-08T12:27:37.418Z,101844.00
2022-10-08T12:30:11.691Z,101854.00
2022-10-08T12:32:58.212Z,101855.00
2022-10-08T12:35:30.895Z,101853.00
2022-10-08T12:38:31.864Z,101847.00
2022-10-08T12:41:15.043Z,101852.00
2022-10-08T12:43:50.707Z,101861.00
2022-10-08T12:46:36.828Z,101869.00
2022-10-08T12:49:16.448Z,101865.00
2022-10-08T12:51:55.476Z,101875.00
2022-10-08T12:57:17.825Z,101873.00
2022-10-08T12:59:47.532Z,101861.00
2022-10-08T13:02:30.073Z,101848.00
2022-10-08T13:04:58.408Z,101873.00
2022-10-08T13:07:29.850Z,101871.00
2022-10-08T13:10:00.289Z,101877.00
2022-10-08T13:12:29.396Z,101891.00
2022-10-08T13:15:05.210Z,101888.00
2022-10-08T13:17:37.393Z,101881.00
2022-10-08T13:20:16.915Z,101889.00
2022-10-08T13:22:45.604Z,101899.00
2022-10-08T13:25:39.220Z,101892.00
2022-10-08T13:28:14.613Z,101893.00
2022-10-08T13:30:46.313Z,101893.00
2022-10-08T13:33:20.948Z,101891.00
2022-10-08T13:35:54.702Z,101899.00
2022-10-08T13:38:26.291Z,101891.00
2022-10-08T13:40:58.746Z,101876.00
2022-10-08T13:43:27.707Z,101912.00
2022-10-08T13:45:56.065Z,101905.00
2022-10-08T13:48:26.455Z,101910.00
2022-10-08T13:50:56.982Z,101890.00
2022-10-08T13:53:27.795Z,101908.00
2022-10-08T13:55:56.012Z,101908.00
2022-10-08T13:58:24.295Z,101915.00
2022-10-08T14:00:54.578Z,101920.00
2022-10-08T14:03:23.247Z,101919.00
2022-10-08T14:05:53.403Z,101924.00
2022-10-08T14:08:27.578Z,101927.00
2022-10-08T14:10:58.053Z,101919.00
2022-10-08T14:13:29.299Z,101938.00
2022-10-08T14:15:57.823Z,101934.00
2022-10-08T14:18:26.628Z,101930.00
2022-10-08T14:20:56.266Z,101937.00
2022-10-08T14:23:24.453Z,101935.00
2022-10-08T14:25:53.659Z,101929.00
2022-10-08T14:28:21.989Z,101935.00
2022-10-08T14:30:50.632Z,101936.00
2022-10-08T14:33:18.851Z,101936.00
2022-10-08T14:35:47.186Z,101930.00
2022-10-08T14:38:16.897Z,101933.00
2022-10-08T14:40:45.098Z,101939.00
2022-10-08T14:43:13.308Z,101940.00
2022-10-08T14:45:41.605Z,101946.00
2022-10-08T14:48:11.631Z,101923.00
2022-10-08T14:50:39.851Z,101950.00
2022-10-08T14:53:08.214Z,101902.00
2022-10-08T14:55:54.434Z,101962.00
2022-10-08T14:58:26.210Z,101957.00
2022-10-08T15:00:55.357Z,101972.00
2022-10-08T15:03:24.059Z,101971.00
2022-10-08T15:05:53.111Z,101971.00
2022-10-08T15:08:22.078Z,101975.00
2022-10-08T15:10:52.001Z,101969.00
2022-10-08T15:13:20.146Z,101974.00
2022-10-08T15:15:48.341Z,101979.00
2022-10-08T15:18:16.657Z,101979.00
2022-10-08T15:20:44.918Z,101981.00
2022-10-08T15:23:13.195Z,101976.00
2022-10-08T15:25:41.807Z,101981.00
2022-10-08T15:28:11.679Z,101989.00
2022-10-08T15:30:40.982Z,101990.00
2022-10-08T15:33:09.114Z,101969.00
2022-10-08T15:35:37.373Z,101986.00
2022-10-08T15:38:05.554Z,101997.00
2022-10-08T15:40:33.824Z,101997.00
2022-10-08T15:43:01.953Z,102000.00
2022-10-08T15:45:31.590Z,101998.00
2022-10-08T15:47:59.814Z,102010.00
2022-10-08T15:50:27.945Z,102007.00
2022-10-08T15:52:56.142Z,102004.00
2022-10-08T15:55:24.284Z,102010.00
2022-10-08T15:57:52.405Z,102009.00
2022-10-08T16:00:22.562Z,102013.00
2022-10-08T16:02:52.401Z,102019.00
2022-10-08T16:05:21.838Z,102016.00
2022-10-08T16:07:50.010Z,102019.00
2022-10-08T16:10:18.572Z,102016.00
2022-10-08T16:12:47.081Z,102025.00
2022-10-08T16:15:15.749Z,102021.00
2022-10-08T16:17:44.107Z,102032.00
2022-10-08T16:20:13.735Z,102023.00
2022-10-08T16:22:42.104Z,102027.00
2022-10-08T16:25:10.723Z,102033.00
2022-10-08T16:27:38.929Z,102021.00
2022-10-08T16:30:09.020Z,102026.00
2022-10-08T16:32:37.172Z,102047.00
2022-10-08T16:35:06.117Z,102040.00
2022-10-08T16:37:35.950Z,102047.00
2022-10-08T16:40:04.255Z,102053.00
2022-10-08T16:42:32.550Z,102058.00
2022-10-08T16:45:00.817Z,102051.00
2022-10-08T16:47:29.258Z,102075.00
2022-10-08T16:49:57.656Z,102060.00
2022-10-08T16:52:25.878Z,102079.00
2022-10-08T16:54:56.069Z,102077.00
2022-10-08T16:57:25.424Z,102084.00
2022-10-08T16:59:54.053Z,102080.00
2022-10-08T17:02:25.830Z,102093.00
2022-10-08T17:04:54.479Z,102086.00
2022-10-08T17:07:22.613Z,102091.00
2022-10-08T17:09:50.772Z,102097.00
2022-10-08T17:12:21.980Z,102094.00
2022-10-08T17:14:50.391Z,102095.00
2022-10-08T17:17:18.579Z,102100.00
2022-10-08T17:19:46.724Z,102105.00
2022-10-08T17:22:16.738Z,102098.00
2022-10-08T17:24:45.353Z,102097.00
2022-10-08T17:27:13.632Z,102103.00
2022-10-08T17:29:43.189Z,102065.00
2022-10-08T17:32:11.588Z,102118.00
2022-10-08T17:34:39.870Z,102128.00
2022-10-08T17:37:08.449Z,102126.00
2022-10-08T17:39:36.595Z,102133.00
2022-10-08T17:42:07.348Z,102142.00
2022-10-08T17:44:35.692Z,102144.00
2022-10-08T17:47:05.457Z,102152.00
2022-10-08T17:49:33.735Z,102153.00
2022-10-08T17:52:01.967Z,102145.00
2022-10-08T17:54:30.110Z,102149.00
2022-10-08T17:56:58.677Z,102148.00
2022-10-08T17:59:27.257Z,102141.00
2022-10-08T18:01:56.070Z,102149.00
2022-10-08T18:04:25.781Z,102153.00
2022-10-08T18:06:59.772Z,102157.00
2022-10-08T18:09:30.920Z,102154.00
2022-10-08T18:11:59.246Z,102143.00
2022-10-08T18:14:27.491Z,102165.00
2022-10-08T18:16:56.596Z,102172.00
2022-10-08T18:19:26.600Z,102170.00
2022-10-08T18:21:54.837Z,102167.00
2022-10-08T18:24:23.161Z,102177.00
2022-10-08T18:26:51.782Z,102181.00
2022-10-08T18:29:19.934Z,102180.00
2022-10-08T18:31:48.153Z,102182.00
2022-10-08T18:34:21.378Z,102149.00
2022-10-08T18:36:51.111Z,102184.00
2022-10-08T18:39:26.103Z,102191.00
2022-10-08T18:41:56.559Z,102190.00
2022-10-08T18:44:26.715Z,102187.00
2022-10-08T18:46:55.085Z,102206.00
2022-10-08T18:49:30.188Z,102199.00
2022-10-08T18:52:01.419Z,102161.00
2022-10-08T18:54:29.898Z,102178.00
2022-10-08T18:57:00.321Z,102199.00
2022-10-08T18:59:29.276Z,102205.00
2022-10-08T19:01:59.502Z,102204.00
2022-10-08T19:04:28.379Z,102217.00
2022-10-08T19:07:00.622Z,102209.00
2022-10-08T19:09:28.962Z,102220.00
2022-10-08T19:11:57.864Z,102178.00
2022-10-08T19:14:26.139Z,102217.00
2022-10-08T19:16:54.294Z,102214.00
2022-10-08T19:19:24.206Z,102216.00
2022-10-08T19:21:54.393Z,102197.00
2022-10-08T19:24:29.106Z,102219.00
2022-10-08T19:26:58.398Z,102225.00
2022-10-08T19:29:29.642Z,102223.00
2022-10-08T19:36:08.179Z,102227.00
2022-10-08T19:38:36.650Z,102237.00
2022-10-08T19:41:10.386Z,102229.00
2022-10-08T19:43:46.514Z,102240.00
2022-10-08T19:47:15.343Z,102241.00
2022-10-08T19:49:45.538Z,102244.00
2022-10-08T19:52:14.380Z,102248.00
2022-10-08T19:54:43.500Z,102251.00
2022-10-08T19:57:13.150Z,102253.00
2022-10-08T20:03:17.699Z,102244.00
2022-10-08T20:05:45.927Z,102255.00
2022-10-08T20:08:14.292Z,102231.00
2022-10-08T20:10:42.514Z,102262.00
2022-10-08T20:13:43.720Z,102262.00
2022-10-08T20:16:14.375Z,102262.00
2022-10-08T20:18:42.757Z,102268.00
2022-10-08T20:21:13.123Z,102261.00
2022-10-08T20:23:41.676Z,102237.00
2022-10-08T20:26:12.105Z,102260.00
2022-10-08T20:28:40.392Z,102228.00
2022-10-08T20:31:16.085Z,102278.00
2022-10-08T20:33:46.291Z,102257.00
2022-10-08T20:36:18.748Z,102285.00
2022-10-08T20:38:46.995Z,102238.00
2022-10-08T20:41:15.232Z,102257.00
2022-10-08T20:43:43.462Z,102284.00
2022-10-08T20:46:15.591Z,102288.00
2022-10-08T20:48:45.827Z,102219.00
2022-10-08T20:51:16.965Z,102240.00
2022-10-08T20:53:53.281Z,102289.00
2022-10-08T20:56:24.620Z,102293.00
2022-10-08T20:58:54.266Z,102282.00
2022-10-08T21:01:29.515Z,102282.00
2022-10-08T21:03:58.194Z,102290.00
2022-10-08T21:06:29.296Z,102285.00
2022-10-08T21:08:59.847Z,102285.00
2022-10-08T21:11:31.063Z,102292.00
2022-10-08T21:14:01.650Z,102291.00
2022-10-08T21:16:34.257Z,102294.00
2022-10-08T21:19:05.075Z,102294.00
2022-10-08T21:21:34.714Z,102290.00
2022-10-08T21:24:03.188Z,102283.00
2022-10-08T21:26:33.232Z,102296.00
2022-10-08T21:29:04.099Z,102291.00
2022-10-08T21:31:36.150Z,102298.00
2022-10-08T21:34:05.211Z,102292.00
2022-10-08T21:36:35.661Z,102286.00
2022-10-08T21:39:06.625Z,102295.00
2022-10-08T21:41:36.622Z,102298.00
2022-10-08T21:44:07.320Z,102301.00
2022-10-08T21:46:39.882Z,102295.00
2022-10-08T21:49:12.245Z,102301.00
2022-10-08T21:51:40.403Z,102292.00
2022-10-08T21:54:10.751Z,102299.00
2022-10-08T21:56:41.494Z,102301.00
2022-10-08T21:59:13.217Z,102308.00
2022-10-08T22:01:44.453Z,102287.00
2022-10-08T22:04:15.913Z,102301.00
2022-10-08T22:06:47.543Z,102303.00
2022-10-08T22:09:18.979Z,102303.00
2022-10-08T22:11:47.681Z,102307.00
2022-10-08T22:14:17.317Z,102308.00
2022-10-08T22:16:47.501Z,102296.00
2022-10-08T22:19:16.341Z,102296.00
2022-10-08T22:21:45.507Z,102308.00
2022-10-08T22:24:14.192Z,102307.00
2022-10-08T22:26:46.025Z,102305.00
2022-10-08T22:29:15.242Z,102302.00
2022-10-08T22:31:43.942Z,102308.00
2022-10-08T22:34:13.993Z,102309.00
2022-10-08T22:36:44.909Z,102307.00
2022-10-08T22:39:13.346Z,102308.00
2022-10-08T22:41:41.621Z,102307.00
2022-10-08T22:44:09.998Z,102302.00
2022-10-08T22:46:40.997Z,102303.00
2022-10-08T22:49:12.159Z,102299.00
2022-10-08T22:51:43.837Z,102301.00
2022-10-08T22:54:12.135Z,102303.00
2022-10-08T22:56:40.405Z,102298.00
2022-10-08T22:59:08.684Z,102283.00
2022-10-08T23:01:36.998Z,102291.00
2022-10-08T23:04:05.360Z,102297.00
2022-10-08T23:06:35.822Z,102294.00
2022-10-08T23:09:07.959Z,102287.00
2022-10-08T23:11:36.448Z,102295.00
2022-10-08T23:14:05.907Z,102297.00
2022-10-08T23:16:35.441Z,102301.00
2022-10-08T23:19:06.107Z,102300.00
2022-10-08T23:21:35.073Z,102302.00
2022-10-08T23:24:05.537Z,102283.00
2022-10-08T23:26:33.865Z,102295.00
2022-10-08T23:29:02.764Z,102301.00
2022-10-08T23:31:33.589Z,102290.00
2022-10-08T23:34:02.767Z,102295.00
2022-10-08T23:36:33.617Z,102295.00
2022-10-08T23:39:04.077Z,102305.00
2022-10-08T23:41:32.253Z,102306.00
2022-10-08T23:44:00.603Z,102300.00
2022-10-08T23:46:31.231Z,102305.00
2022-10-08T23:49:00.719Z,102303.00
2022-10-08T23:51:31.968Z,102308.00
2022-10-08T23:54:01.313Z,102303.00
2022-10-08T23:56:31.409Z,102303.00
2022-10-08T23:59:00.010Z,102300.00
